Time;durP1;ratioP1;P1;durP2;ratioP2;P2;SDS_P1;SDS_P2;PMS_P1;PMS_P2;Temp;Humidity;BMP_temperature;BMP_pressure;BME280_temperature;BME280_humidity;BME280_pressure;Samples;Min_cycle;Max_cycle;Signal;HPM_P1;HPM_P2
2023/04/07 00:03:23;;;;;;;;;;;;;;;;;;10402636;28;20033;-76
2023/04/07 00:08:26;;;;;;;10.27;3.42;;;;;;;;;;10400241;28;20474;-75
2023/04/07 00:13:30;;;;;;;9.33;4.30;;;;;;;;;;10396055;28;20869;-75
2023/04/07 00:18:34;;;;;;;6.38;2.67;;;;;;;;;;10402659;28;20299;-77
2023/04/07 00:23:36;;;;;;;4.15;1.85;;;;;;;;;;10421271;28;20490;-77
2023/04/07 00:28:41;;;;;;;6.87;2.50;;;;;;;;;;10405873;28;20068;-76
2023/04/07 00:33:43;;;;;;;11.32;3.35;;;;;;;;;;10398973;28;20467;-76
2023/04/07 00:38:46;;;;;;;8.35;3.80;;;;;;;;;;10379859;28;20049;-75
2023/04/07 00:43:51;;;;;;;7.83;3.90;;;;;;;;;;10399102;28;20499;-75
2023/04/07 00:48:53;;;;;;;;;;;;;;;;;;10396830;28;20048;-76
2023/04/07 00:53:56;;;;;;;8.85;3.97;;;;;;;;;;10395151;28;19979;-75
2023/04/07 00:59:00;;;;;;;8.32;4.22;;;;;;;;;;10401645;28;20407;-76
2023/04/07 01:04:05;;;;;;;5.38;3.17;;;;;;;;;;10400882;28;20332;-74
2023/04/07 01:09:11;;;;;;;5.35;2.42;;;;;;;;;;10398112;28;20419;-75
2023/04/07 01:14:15;;;;;;;10.13;3.65;;;;;;;;;;10379208;28;20060;-76
2023/04/07 01:19:30;;;;;;;6.28;3.35;;;;;;;;;;10401076;28;20557;-75
2023/04/07 01:24:50;;;;;;;7.60;3.40;;;;;;;;;;10405337;28;20058;-76
2023/04/07 01:29:55;;;;;;;8.70;3.28;;;;;;;;;;10383614;28;20450;-78
2023/04/07 01:34:59;;;;;;;8.40;3.25;;;;;;;;;;10398773;28;20030;-75
2023/04/07 01:40:03;;;;;;;8.57;3.55;;;;;;;;;;10406119;28;20430;-75
2023/04/07 01:45:08;;;;;;;5.57;2.37;;;;;;;;;;10363712;28;1217410;-76
2023/04/07 01:50:11;;;;;;;9.15;4.00;;;;;;;;;;10406781;28;20136;-74
2023/04/07 01:55:14;;;;;;;5.50;2.50;;;;;;;;;;10406550;28;20046;-75
2023/04/07 02:00:18;;;;;;;7.28;3.17;;;;;;;;;;10404625;28;20065;-77
2023/04/07 02:05:21;;;;;;;7.07;2.60;;;;;;;;;;10413629;28;20033;-75
2023/04/07 02:10:33;;;;;;;10.20;3.33;;;;;;;;;;10410845;28;20039;-75
2023/04/07 02:15:40;;;;;;;6.20;2.83;;;;;;;;;;10404150;28;20041;-76
2023/04/07 02:20:45;;;;;;;4.95;1.92;;;;;;;;;;10405736;28;20044;-75
2023/04/07 02:25:47;;;;;;;3.38;2.05;;;;;;;;;;10404147;28;20376;-75
2023/04/07 02:30:51;;;;;;;5.22;2.10;;;;;;;;;;10403746;28;20033;-74
2023/04/07 02:35:54;;;;;;;;;;;;;;;;;;10403793;28;20046;-74
2023/04/07 02:40:57;;;;;;;3.83;1.92;;;;;;;;;;10406875;28;19982;-76
2023/04/07 02:46:01;;;;;;;8.32;2.75;;;;;;;;;;10402906;28;20041;-75
2023/04/07 02:51:04;;;;;;;6.50;2.60;;;;;;;;;;10404042;28;20143;-75
2023/04/07 02:56:07;;;;;;;7.00;3.60;;;;;;;;;;10406389;28;20053;-76
2023/04/07 03:01:11;;;;;;;6.00;2.38;;;;;;;;;;10403752;28;20141;-76
2023/04/07 03:06:14;;;;;;;5.32;2.17;;;;;;;;;;10403591;28;20053;-78
2023/04/07 03:11:16;;;;;;;7.40;2.60;;;;;;;;;;10413945;28;20045;-78
2023/04/07 03:16:23;;;;;;;5.38;2.10;;;;;;;;;;10415254;28;20030;-75
2023/04/07 03:21:27;;;;;;;2.95;1.75;;;;;;;;;;10413025;28;20085;-77
2023/04/07 03:26:31;;;;;;;2.72;1.75;;;;;;;;;;10394479;28;20046;-77
2023/04/07 03:31:36;;;;;;;2.03;1.02;;;;;;;;;;10410066;28;20085;-76
2023/04/07 03:36:39;;;;;;;4.25;2.05;;;;;;;;;;10381845;28;20153;-76
2023/04/07 03:41:41;;;;;;;5.57;2.67;;;;;;;;;;10397193;28;20284;-77
2023/04/07 03:46:47;;;;;;;3.20;1.73;;;;;;;;;;10404257;28;20052;-76
2023/04/07 03:51:50;;;;;;;4.53;2.17;;;;;;;;;;10400595;28;20034;-75
2023/04/07 03:56:53;;;;;;;3.55;1.60;;;;;;;;;;10387330;28;20132;-76
2023/04/07 04:01:57;;;;;;;8.25;2.80;;;;;;;;;;10404310;28;20041;-76
2023/04/07 04:07:00;;;;;;;8.38;4.15;;;;;;;;;;10402894;28;20048;-73
2023/04/07 04:12:03;;;;;;;3.85;1.48;;;;;;;;;;10397841;28;20029;-76
2023/04/07 04:17:07;;;;;;;10.27;4.07;;;;;;;;;;10403758;28;20128;-79
2023/04/07 04:22:10;;;;;;;7.15;2.60;;;;;;;;;;10400909;28;20042;-76
2023/04/07 04:27:13;;;;;;;1.83;1.40;;;;;;;;;;10402228;28;20049;-77
2023/04/07 04:32:18;;;;;;;4.23;2.20;;;;;;;;;;10403652;28;20065;-78
2023/04/07 04:37:22;;;;;;;5.72;2.80;;;;;;;;;;10406987;28;20365;-77
2023/04/07 04:42:26;;;;;;;3.60;2.20;;;;;;;;;;10406165;28;20061;-77
2023/04/07 04:47:30;;;;;;;5.75;2.90;;;;;;;;;;10423662;28;20052;-76
2023/04/07 04:52:34;;;;;;;7.10;3.08;;;;;;;;;;10437411;28;20204;-75
2023/04/07 04:57:37;;;;;;;4.07;1.92;;;;;;;;;;10447317;28;20045;-75
2023/04/07 05:02:41;;;;;;;9.48;3.88;;;;;;;;;;10445581;28;20057;-75
2023/04/07 05:07:55;;;;;;;7.47;2.20;;;;;;;;;;10449787;28;20113;-75
2023/04/07 05:13:07;;;;;;;9.23;3.90;;;;;;;;;;10429178;28;20037;-76
2023/04/07 05:18:11;;;;;;;5.03;2.47;;;;;;;;;;10409514;28;20045;-75
2023/04/07 05:23:14;;;;;;;6.07;2.85;;;;;;;;;;10404970;28;20136;-76
2023/04/07 05:28:16;;;;;;;4.28;1.98;;;;;;;;;;10404066;28;20057;-76
2023/04/07 05:33:20;;;;;;;6.78;2.78;;;;;;;;;;10409211;28;20037;-74
2023/04/07 05:38:23;;;;;;;11.07;5.78;;;;;;;;;;10398109;28;20549;-77
2023/04/07 05:43:25;;;;;;;13.70;8.35;;;;;;;;;;10399580;28;20041;-76
2023/04/07 05:48:30;;;;;;;12.55;3.15;;;;;;;;;;10397423;28;20111;-76
2023/04/07 05:53:32;;;;;;;;;;;;;;;;;;10401075;28;20037;-77
2023/04/07 05:58:36;;;;;;;12.00;4.20;;;;;;;;;;10417598;28;19979;-77
2023/04/07 06:03:39;;;;;;;8.45;3.35;;;;;;;;;;10416168;28;20457;-76
2023/04/07 06:08:42;;;;;;;;;;;;;;;;;;10410522;28;20046;-75
2023/04/07 06:13:55;;;;;;;8.82;3.72;;;;;;;;;;10410241;28;19932;-76
2023/04/07 06:19:01;;;;;;;8.93;3.70;;;;;;;;;;10411124;28;20034;-75
2023/04/07 06:24:03;;;;;;;8.40;2.97;;;;;;;;;;10412793;28;20038;-77
2023/04/07 06:29:06;;;;;;;1.95;0.85;;;;;;;;;;10418115;28;20052;-76
2023/04/07 06:34:11;;;;;;;4.70;3.00;;;;;;;;;;10431691;28;20507;-76
2023/04/07 06:39:13;;;;;;;;;;;;;;;;;;10414510;28;20068;-76
2023/04/07 06:44:16;;;;;;;8.63;3.80;;;;;;;;;;10412502;28;19956;-75
2023/04/07 06:49:20;;;;;;;2.78;1.52;;;;;;;;;;10410743;28;20084;-75
2023/04/07 06:54:23;;;;;;;9.20;3.80;;;;;;;;;;10412256;28;20033;-75
2023/04/07 06:59:26;;;;;;;6.90;3.00;;;;;;;;;;10404073;28;20053;-76
2023/04/07 07:04:31;;;;;;;6.10;2.87;;;;;;;;;;10407606;28;20048;-75
2023/04/07 07:09:34;;;;;;;5.65;2.25;;;;;;;;;;10411450;28;20329;-75
2023/04/07 07:14:36;;;;;;;11.07;3.30;;;;;;;;;;10415294;28;20091;-76
2023/04/07 07:19:41;;;;;;;5.90;3.30;;;;;;;;;;10409102;28;20308;-75
2023/04/07 07:24:45;;;;;;;5.63;2.72;;;;;;;;;;10413500;28;20095;-75
2023/04/07 07:29:48;;;;;;;3.95;1.83;;;;;;;;;;10406673;28;20285;-75
2023/04/07 07:34:51;;;;;;;10.25;3.72;;;;;;;;;;10409566;28;20037;-76
2023/04/07 07:39:55;;;;;;;;;;;;;;;;;;10403348;28;20037;-76
2023/04/07 07:44:58;;;;;;;9.13;3.87;;;;;;;;;;10409768;28;19932;-76
2023/04/07 07:50:03;;;;;;;8.03;3.70;;;;;;;;;;10412566;28;20033;-77
2023/04/07 07:55:06;;;;;;;7.97;3.78;;;;;;;;;;10409963;28;20411;-77
2023/04/07 08:00:09;;;;;;;5.85;2.90;;;;;;;;;;10401509;28;20045;-76
2023/04/07 08:05:14;;;;;;;4.35;2.22;;;;;;;;;;10406924;28;20033;-77
2023/04/07 08:10:19;;;;;;;7.60;2.75;;;;;;;;;;10401144;28;20095;-76
2023/04/07 08:15:22;;;;;;;8.85;3.58;;;;;;;;;;10408804;28;20120;-75
2023/04/07 08:20:26;;;;;;;6.10;2.05;;;;;;;;;;10403600;28;20060;-76
2023/04/07 08:25:30;;;;;;;5.78;2.80;;;;;;;;;;10404903;28;20048;-75
2023/04/07 08:30:34;;;;;;;6.65;2.90;;;;;;;;;;10408538;28;20055;-75
2023/04/07 08:35:38;;;;;;;8.77;3.92;;;;;;;;;;10407708;28;20052;-76
2023/04/07 08:40:41;;;;;;;8.57;3.83;;;;;;;;;;10405343;28;20428;-75
2023/04/07 08:45:45;;;;;;;8.73;3.80;;;;;;;;;;10408177;28;20065;-76
2023/04/07 08:50:51;;;;;;;8.52;4.00;;;;;;;;;;10409278;28;20046;-79
2023/04/07 08:55:55;;;;;;;8.32;4.30;;;;;;;;;;10407232;28;20368;-76
2023/04/07 09:00:58;;;;;;;4.70;2.70;;;;;;;;;;10405226;28;20034;-78
2023/04/07 09:06:04;;;;;;;9.57;4.05;;;;;;;;;;10392284;28;20121;-76
2023/04/07 09:11:07;;;;;;;7.63;3.90;;;;;;;;;;10407036;28;20049;-76
2023/04/07 09:16:09;;;;;;;7.55;4.35;;;;;;;;;;10409222;28;20200;-76
2023/04/07 09:21:13;;;;;;;6.93;4.20;;;;;;;;;;10404776;28;20088;-76
2023/04/07 09:26:21;;;;;;;8.07;3.30;;;;;;;;;;10402321;28;20070;-76
2023/04/07 09:31:43;;;;;;;7.53;4.25;;;;;;;;;;10408780;28;20041;-76
2023/04/07 09:36:47;;;;;;;8.98;4.55;;;;;;;;;;10399130;28;20057;-76
2023/04/07 09:41:51;;;;;;;7.25;4.78;;;;;;;;;;10406495;28;20037;-76
2023/04/07 09:46:56;;;;;;;8.35;4.53;;;;;;;;;;10415452;28;20040;-77
2023/04/07 09:52:03;;;;;;;7.65;4.85;;;;;;;;;;10413007;28;20041;-77
2023/04/07 09:57:07;;;;;;;7.50;4.75;;;;;;;;;;10405426;28;20167;-76
2023/04/07 10:02:15;;;;;;;;;;;;;;;;;;10413791;28;20120;-77
2023/04/07 10:07:18;;;;;;;;;;;;;;;;;;10414768;28;20271;-77
2023/04/07 10:12:20;;;;;;;;;;;;;;;;;;10419742;28;20382;-77
2023/04/07 10:17:23;;;;;;;;;;;;;;;;;;10409283;28;20392;-77
2023/04/07 10:22:26;;;;;;;;;;;;;;;;;;10414226;28;19932;-77
2023/04/07 10:27:30;;;;;;;;;;;;;;;;;;10406191;28;19921;-77
2023/04/07 10:32:32;;;;;;;;;;;;;;;;;;10413866;28;19927;-76
2023/04/07 10:37:36;;;;;;;11.15;5.50;;;;;;;;;;10410030;28;19921;-77
2023/04/07 10:42:39;;;;;;;;;;;;;;;;;;10410458;28;20479;-76
2023/04/07 10:47:42;;;;;;;;;;;;;;;;;;10413850;28;20003;-77
2023/04/07 10:52:45;;;;;;;;;;;;;;;;;;10407827;28;19921;-77
2023/04/07 10:57:48;;;;;;;;;;;;;;;;;;10411788;28;19969;-77
2023/04/07 11:02:50;;;;;;;;;;;;;;;;;;10389300;28;20370;-77
2023/04/07 11:07:56;;;;;;;;;;;;;;;;;;10404315;28;19921;-77
2023/04/07 11:12:59;;;;;;;;;;;;;;;;;;10408628;28;19932;-77
2023/04/07 11:18:01;;;;;;;;;;;;;;;;;;10411567;28;19932;-77
2023/04/07 11:23:04;;;;;;;;;;;;;;;;;;10409676;28;19925;-76
2023/04/07 11:28:07;;;;;;;;;;;;;;;;;;10401659;28;19928;-77
2023/04/07 11:33:09;;;;;;;;;;;;;;;;;;10411993;28;20306;-78
2023/04/07 11:38:12;;;;;;;;;;;;;;;;;;10392605;28;20402;-76
2023/04/07 11:43:15;;;;;;;;;;;;;;;;;;10390932;28;20033;-77
2023/04/07 11:48:18;;;;;;;;;;;;;;;;;;10409440;28;19933;-76
2023/04/07 11:53:29;;;;;;;8.52;5.70;;;;;;;;;;10392902;28;19932;-77
2023/04/07 11:58:31;;;;;;;;;;;;;;;;;;10404564;28;20045;-78
2023/04/07 12:03:34;;;;;;;;;;;;;;;;;;10409803;28;19988;-77
2023/04/07 12:08:37;;;;;;;;;;;;;;;;;;10403321;28;20437;-76
2023/04/07 12:13:40;;;;;;;;;;;;;;;;;;10391515;28;19925;-77
2023/04/07 12:18:42;;;;;;;;;;;;;;;;;;10389536;28;19952;-77
2023/04/07 12:23:46;;;;;;;;;;;;;;;;;;10408754;28;20436;-76
2023/04/07 12:28:49;;;;;;;;;;;;;;;;;;10411709;28;19929;-78
2023/04/07 12:33:51;;;;;;;;;;;;;;;;;;10410238;28;19921;-78
2023/04/07 12:38:54;;;;;;;;;;;;;;;;;;10410264;28;19943;-77
2023/04/07 12:43:58;;;;;;;7.85;4.75;;;;;;;;;;10387253;28;19928;-77
2023/04/07 12:49:01;;;;;;;8.20;4.80;;;;;;;;;;10388353;28;20398;-77
2023/04/07 12:54:04;;;;;;;;;;;;;;;;;;10408170;28;20029;-77
2023/04/07 12:59:08;;;;;;;8.25;4.47;;;;;;;;;;10390522;28;19964;-77
2023/04/07 13:04:11;;;;;;;7.20;4.30;;;;;;;;;;10407716;28;20052;-76
2023/04/07 13:09:14;;;;;;;8.52;4.18;;;;;;;;;;10393971;28;20096;-76
2023/04/07 13:14:18;;;;;;;8.35;4.60;;;;;;;;;;10405199;28;20096;-76
2023/04/07 13:19:21;;;;;;;7.10;3.75;;;;;;;;;;10381680;28;20115;-76
2023/04/07 13:24:23;;;;;;;9.30;4.07;;;;;;;;;;10388134;28;20052;-76
2023/04/07 13:29:27;;;;;;;7.63;4.43;;;;;;;;;;10382457;28;20057;-77
2023/04/07 13:34:30;;;;;;;10.55;4.97;;;;;;;;;;10410370;28;20450;-77
2023/04/07 13:39:33;;;;;;;9.98;4.63;;;;;;;;;;10388556;28;20132;-77
2023/04/07 13:44:38;;;;;;;10.48;5.18;;;;;;;;;;10413713;28;20522;-77
2023/04/07 13:49:41;;;;;;;9.82;4.60;;;;;;;;;;10415560;28;20045;-77
2023/04/07 13:54:43;;;;;;;9.63;4.95;;;;;;;;;;10414546;28;20431;-77
2023/04/07 13:59:50;;;;;;;9.17;4.43;;;;;;;;;;10413231;28;20080;-77
2023/04/07 14:04:54;;;;;;;8.90;4.53;;;;;;;;;;10413386;28;20037;-77
2023/04/07 14:09:57;;;;;;;9.13;4.28;;;;;;;;;;10409308;28;20044;-76
2023/04/07 14:15:03;;;;;;;10.05;4.50;;;;;;;;;;10419903;28;20045;-76
2023/04/07 14:20:06;;;;;;;8.77;4.40;;;;;;;;;;10413015;28;20037;-75
2023/04/07 14:25:09;;;;;;;;;;;;;;;;;;10412157;28;20045;-76
2023/04/07 14:30:14;;;;;;;9.93;4.50;;;;;;;;;;10409095;28;19921;-78
2023/04/07 14:35:16;;;;;;;10.10;4.80;;;;;;;;;;10412387;28;20084;-76
2023/04/07 14:40:19;;;;;;;7.30;4.05;;;;;;;;;;10404131;28;20526;-77
2023/04/07 14:45:31;;;;;;;7.60;4.28;;;;;;;;;;10411574;28;20050;-76
2023/04/07 14:50:34;;;;;;;7.20;3.85;;;;;;;;;;10411126;28;20060;-77
2023/04/07 14:55:37;;;;;;;8.77;4.43;;;;;;;;;;10411544;28;20042;-75
2023/04/07 15:00:41;;;;;;;7.30;3.97;;;;;;;;;;10403517;28;20069;-78
2023/04/07 15:05:45;;;;;;;6.82;3.72;;;;;;;;;;10416515;28;20094;-76
2023/04/07 15:10:48;;;;;;;8.10;4.07;;;;;;;;;;10412146;28;20078;-78
2023/04/07 15:15:53;;;;;;;8.07;3.83;;;;;;;;;;10405282;28;20479;-76
2023/04/07 15:20:55;;;;;;;8.48;3.83;;;;;;;;;;10406623;28;20380;-76
2023/04/07 15:25:58;;;;;;;10.47;4.47;;;;;;;;;;10410019;28;20040;-77
2023/04/07 15:31:07;;;;;;;8.18;3.95;;;;;;;;;;10405606;28;20145;-76
2023/04/07 15:36:10;;;;;;;8.18;3.63;;;;;;;;;;10408683;28;20111;-76
2023/04/07 15:41:14;;;;;;;8.37;4.13;;;;;;;;;;10407040;28;20115;-77
2023/04/07 15:46:19;;;;;;;8.93;3.85;;;;;;;;;;10409673;28;20037;-76
2023/04/07 15:51:21;;;;;;;7.85;3.97;;;;;;;;;;10414462;28;20076;-76
2023/04/07 15:56:27;;;;;;;7.80;3.80;;;;;;;;;;10416289;28;20040;-77
2023/04/07 16:01:31;;;;;;;6.78;3.80;;;;;;;;;;10400975;28;20053;-76
2023/04/07 16:06:34;;;;;;;9.50;4.22;;;;;;;;;;10406892;28;20037;-75
2023/04/07 16:11:37;;;;;;;7.15;3.40;;;;;;;;;;10405972;28;20050;-76
2023/04/07 16:16:43;;;;;;;9.50;4.60;;;;;;;;;;10409014;28;20104;-76
2023/04/07 16:21:46;;;;;;;8.05;4.32;;;;;;;;;;10403914;28;20048;-76
2023/04/07 16:26:54;;;;;;;7.72;3.60;;;;;;;;;;10401194;28;20558;-76
2023/04/07 16:31:59;;;;;;;6.82;3.60;;;;;;;;;;10408530;28;20088;-76
2023/04/07 16:37:01;;;;;;;9.15;4.90;;;;;;;;;;10406025;28;20052;-76
2023/04/07 16:42:05;;;;;;;17.13;6.47;;;;;;;;;;10404468;28;20049;-76
2023/04/07 16:47:09;;;;;;;6.55;3.60;;;;;;;;;;10389638;28;20303;-76
2023/04/07 16:52:12;;;;;;;7.05;3.60;;;;;;;;;;10388847;28;20126;-76
2023/04/07 16:57:14;;;;;;;8.30;4.10;;;;;;;;;;10412317;28;20523;-75
2023/04/07 17:02:18;;;;;;;7.03;3.63;;;;;;;;;;10404081;28;20049;-76
2023/04/07 17:07:22;;;;;;;8.40;4.00;;;;;;;;;;10402520;28;20422;-76
2023/04/07 17:12:26;;;;;;;9.05;4.68;;;;;;;;;;10412657;28;20492;-76
2023/04/07 17:17:30;;;;;;;10.65;5.75;;;;;;;;;;10411900;28;20451;-77
2023/04/07 17:22:36;;;;;;;8.77;4.10;;;;;;;;;;10415264;28;20109;-76
2023/04/07 17:27:39;;;;;;;10.97;5.07;;;;;;;;;;10412263;28;19928;-76
2023/04/07 17:32:43;;;;;;;9.93;4.65;;;;;;;;;;10414266;28;20529;-76
2023/04/07 17:37:46;;;;;;;9.60;3.92;;;;;;;;;;10410765;28;20037;-76
2023/04/07 17:42:49;;;;;;;8.50;3.92;;;;;;;;;;10411767;28;20407;-77
2023/04/07 17:47:53;;;;;;;8.93;3.97;;;;;;;;;;10424581;28;20411;-76
2023/04/07 17:52:57;;;;;;;8.52;3.85;;;;;;;;;;10417812;28;20058;-76
2023/04/07 17:58:00;;;;;;;7.60;3.67;;;;;;;;;;10409179;28;20042;-76
2023/04/07 18:03:06;;;;;;;8.63;3.80;;;;;;;;;;10413303;28;20034;-77
2023/04/07 18:08:09;;;;;;;8.60;3.95;;;;;;;;;;10405677;28;20347;-76
2023/04/07 18:13:12;;;;;;;10.43;4.50;;;;;;;;;;10410242;28;20069;-77
2023/04/07 18:18:18;;;;;;;8.57;3.70;;;;;;;;;;10409503;28;20394;-76
2023/04/07 18:23:21;;;;;;;8.43;4.47;;;;;;;;;;10416077;28;20040;-77
2023/04/07 18:28:24;;;;;;;7.95;3.88;;;;;;;;;;10408180;28;20030;-76
2023/04/07 18:33:31;;;;;;;8.90;4.38;;;;;;;;;;10416049;28;20434;-76
2023/04/07 18:38:35;;;;;;;10.30;4.38;;;;;;;;;;10413685;28;20505;-76
2023/04/07 18:43:38;;;;;;;9.45;4.32;;;;;;;;;;10411189;28;20099;-75
2023/04/07 18:48:43;;;;;;;10.05;4.75;;;;;;;;;;10420433;28;20041;-75
2023/04/07 18:53:46;;;;;;;8.80;4.20;;;;;;;;;;10411677;28;20049;-77
2023/04/07 18:58:55;;;;;;;10.02;4.53;;;;;;;;;;10411357;28;20065;-77
2023/04/07 19:04:00;;;;;;;9.95;4.60;;;;;;;;;;10394110;28;20507;-76
2023/04/07 19:09:03;;;;;;;12.35;4.25;;;;;;;;;;10411112;28;20073;-76
2023/04/07 19:14:06;;;;;;;10.83;5.00;;;;;;;;;;10409807;28;20164;-75
2023/04/07 19:19:12;;;;;;;11.53;4.87;;;;;;;;;;10408673;28;20060;-77
2023/04/07 19:24:15;;;;;;;9.50;4.60;;;;;;;;;;10393013;28;20300;-77
2023/04/07 19:29:23;;;;;;;9.73;4.40;;;;;;;;;;10405365;28;20570;-76
2023/04/07 19:34:27;;;;;;;10.70;4.90;;;;;;;;;;10388239;28;20507;-76
2023/04/07 19:39:30;;;;;;;10.57;4.93;;;;;;;;;;10407485;28;20037;-76
2023/04/07 19:44:33;;;;;;;11.37;4.90;;;;;;;;;;10409911;28;20053;-76
2023/04/07 19:49:38;;;;;;;13.30;5.93;;;;;;;;;;10410475;28;20511;-76
2023/04/07 19:54:41;;;;;;;11.52;5.90;;;;;;;;;;10411746;28;19921;-75
2023/04/07 19:59:45;;;;;;;12.27;5.45;;;;;;;;;;10409365;28;20110;-75
2023/04/07 20:04:50;;;;;;;10.95;5.50;;;;;;;;;;10408815;28;20393;-75
2023/04/07 20:09:53;;;;;;;;;;;;;;;;;;10405101;28;20049;-77
2023/04/07 20:14:56;;;;;;;12.48;5.68;;;;;;;;;;10408585;28;20421;-76
2023/04/07 20:20:00;;;;;;;11.80;5.28;;;;;;;;;;10403411;28;20038;-76
2023/04/07 20:25:04;;;;;;;;;;;;;;;;;;10401715;28;20042;-75
2023/04/07 20:30:07;;;;;;;10.50;5.40;;;;;;;;;;10418133;28;19921;-76
2023/04/07 20:35:12;;;;;;;11.48;5.72;;;;;;;;;;10405203;28;20458;-77
2023/04/07 20:40:15;;;;;;;13.77;5.85;;;;;;;;;;10408230;28;20055;-76
2023/04/07 20:45:28;;;;;;;9.93;4.72;;;;;;;;;;10407447;28;20037;-77
2023/04/07 20:50:32;;;;;;;12.63;5.22;;;;;;;;;;10398882;28;20129;-77
2023/04/07 20:55:36;;;;;;;12.20;5.53;;;;;;;;;;10408396;28;20034;-76
2023/04/07 21:00:38;;;;;;;10.82;5.18;;;;;;;;;;10402878;28;20116;-76
2023/04/07 21:05:43;;;;;;;13.27;6.28;;;;;;;;;;10416409;28;20037;-76
2023/04/07 21:10:47;;;;;;;16.15;6.63;;;;;;;;;;10397870;28;20121;-78
2023/04/07 21:15:49;;;;;;;17.33;7.30;;;;;;;;;;10408210;28;20049;-76
2023/04/07 21:20:55;;;;;;;15.13;6.93;;;;;;;;;;10386964;28;20471;-79
2023/04/07 21:26:01;;;;;;;14.77;6.88;;;;;;;;;;10403509;28;20040;-77
2023/04/07 21:31:04;;;;;;;15.73;7.28;;;;;;;;;;10406828;28;20041;-77
2023/04/07 21:36:08;;;;;;;17.45;6.85;;;;;;;;;;10400704;28;20091;-77
2023/04/07 21:41:11;;;;;;;17.25;7.18;;;;;;;;;;10404607;28;20542;-76
2023/04/07 21:46:15;;;;;;;19.37;7.67;;;;;;;;;;10408184;28;20041;-77
2023/04/07 21:51:19;;;;;;;15.02;6.80;;;;;;;;;;10413820;28;20099;-75
2023/04/07 21:56:22;;;;;;;15.13;6.30;;;;;;;;;;10412469;28;20041;-75
2023/04/07 22:01:25;;;;;;;15.50;7.35;;;;;;;;;;10396896;28;20111;-76
2023/04/07 22:06:30;;;;;;;15.15;7.07;;;;;;;;;;10414117;28;20049;-76
2023/04/07 22:11:32;;;;;;;18.05;7.78;;;;;;;;;;10403825;28;20041;-77
2023/04/07 22:16:35;;;;;;;17.05;7.60;;;;;;;;;;10413802;28;20487;-76
2023/04/07 22:21:39;;;;;;;16.60;7.07;;;;;;;;;;10412656;28;20042;-76
2023/04/07 22:26:41;;;;;;;17.40;7.90;;;;;;;;;;10413957;28;20068;-77
2023/04/07 22:31:44;;;;;;;18.40;7.95;;;;;;;;;;10411979;28;20463;-76
2023/04/07 22:36:49;;;;;;;17.20;7.67;;;;;;;;;;10413136;28;20037;-75
2023/04/07 22:41:52;;;;;;;16.73;7.85;;;;;;;;;;10410433;28;20404;-76
2023/04/07 22:46:56;;;;;;;17.33;8.00;;;;;;;;;;10411973;28;20116;-76
2023/04/07 22:52:01;;;;;;;19.05;8.02;;;;;;;;;;10416415;28;20459;-77
2023/04/07 22:57:06;;;;;;;17.52;8.45;;;;;;;;;;10410399;28;20487;-77
2023/04/07 23:02:09;;;;;;;20.08;9.02;;;;;;;;;;10411988;28;20080;-75
2023/04/07 23:07:23;;;;;;;18.85;8.98;;;;;;;;;;10407973;28;20041;-75
2023/04/07 23:12:26;;;;;;;16.75;7.72;;;;;;;;;;10421245;28;20096;-74
2023/04/07 23:17:29;;;;;;;18.50;8.10;;;;;;;;;;10413128;28;20042;-76
2023/04/07 23:22:33;;;;;;;17.00;7.95;;;;;;;;;;10408446;28;20053;-76
2023/04/07 23:27:36;;;;;;;20.45;7.75;;;;;;;;;;10408011;28;20447;-76
2023/04/07 23:32:38;;;;;;;11.52;5.50;;;;;;;;;;10410774;28;20072;-76
2023/04/07 23:37:43;;;;;;;15.88;7.38;;;;;;;;;;10405669;28;20037;-76
2023/04/07 23:42:46;;;;;;;;;;;;;;;;;;10408111;28;20049;-75
2023/04/07 23:47:50;;;;;;;10.83;3.63;;;;;;;;;;10409587;28;20026;-74
2023/04/07 23:52:54;;;;;;;12.63;5.55;;;;;;;;;;10414814;28;20065;-74
2023/04/07 23:57:56;;;;;;;;;;;;;;;;;;10405688;28;20033;-76
